Observations for Trim Market St
| Time | AQI | Temp °C | Hum % | Pres Pa | CO μg/m³ | H₂S μg/m³ | NO μg/m³ | NO₂ μg/m³ | O₃ μg/m³ | SO₂ μg/m³ | PM1 μg/m³ | PM2.5 μg/m³ | PM10 μg/m³ |
|---|---|---|---|---|---|---|---|---|---|---|---|---|---|
| Wednesday 15 July 2026 | |||||||||||||
| 12:56 | 1 | 36.7 | 31 | 66,558 | 0 | 0 | 0 | 0 | 29.62 | 0.61 | 7.13 | 12.49 | 16.98 |
| 12:55 | 1 | 36.7 | 31 | 66,556 | 0 | 0 | 0 | 0 | 31.6 | 0.5 | 8.55 | 12.48 | 16.12 |
| 12:54 | 1 | 36.7 | 31 | 66,548 | 0 | 0 | 0 | 0 | 26.94 | 0 | 8.55 | 13.02 | 16.97 |
| 12:53 | 1 | 36.7 | 31 | 66,566 | 0 | 0 | 0 | 9.15 | 25.45 | 0 | 7.84 | 12.47 | 16.11 |
| 12:51 | 1 | 36.7 | 31 | 66,554 | 0 | 0 | 0 | 0 | 19.64 | 0.06 | 9.26 | 14.08 | 19.53 |
| 12:50 | 1 | 36.7 | 31 | 66,545 | 0 | 0 | 0 | 0 | 32.84 | 0.55 | 7.13 | 10.82 | 13.52 |
| 12:49 | 1 | 36.7 | 31 | 66,537 | 0 | 0 | 0 | 0 | 35.23 | 0.3 | 8.55 | 11.36 | 15.23 |
| 12:48 | 1 | 36.6 | 31 | 66,523 | 0 | 0 | 0 | 0.73 | 26.82 | 0 | 8.55 | 12.45 | 17.8 |
| 12:47 | 1 | 36.6 | 32 | 66,531 | 0 | 0 | 0 | 0 | 38.3 | 0.08 | 7.84 | 11.9 | 15.22 |
| 12:46 | 1 | 36.6 | 31 | 66,515 | 0 | 0 | 0 | 0 | 34.1 | 0.11 | 9.26 | 12.45 | 16.09 |
| 12:45 | 1 | 36.6 | 32 | 66,527 | 0 | 0 | 0 | 0 | 28.57 | 0 | 8.55 | 12.98 | 16.94 |
| 12:43 | 1 | 36.5 | 32 | 66,509 | 0 | 0 | 0 | 0.62 | 32.67 | 0 | 6.41 | 11.35 | 14.36 |
| 12:42 | 1 | 36.5 | 32 | 66,517 | 0 | 0 | 0 | 0 | 35.76 | 0 | 8.55 | 12.98 | 18.65 |
| 12:41 | 1 | 36.5 | 32 | 66,527 | 0 | 0 | 0 | 0 | 19.8 | 0 | 5.7 | 11.35 | 15.22 |
| 12:40 | 1 | 36.5 | 32 | 66,539 | 0 | 0 | 0 | 0 | 28.99 | 0 | 8.55 | 13.49 | 17.76 |
| 12:39 | 1 | 36.5 | 32 | 66,529 | 0 | 0 | 0 | 5.8 | 44.34 | 0 | 7.84 | 12.41 | 16.06 |
| 12:37 | 1 | 36.5 | 32 | 66,521 | 0 | 0 | 0 | 0.14 | 36.45 | 0 | 7.84 | 11.89 | 15.22 |
| 12:36 | 1 | 36.4 | 32 | 66,507 | 0 | 0 | 0 | 0 | 27.25 | 0 | 8.55 | 12.41 | 16.06 |
| 12:34 | 1 | 36.3 | 32 | 66,497 | 0 | 0 | 0 | 8.1 | 30.45 | 0 | 7.84 | 11.84 | 17.73 |
| 12:32 | 1 | 36.2 | 32 | 66,474 | 0.15 | 0 | 0 | 0.44 | 26.67 | 0 | 8.55 | 14 | 18.58 |